sensor_id;sensor_type;location;lat;lon;timestamp;temperature;humidity
76967;DHT22;65904;52.278;20.972;2023-08-21T00:01:17;24.40;99.90
76967;DHT22;65904;52.278;20.972;2023-08-21T00:04:03;24.30;99.90
76967;DHT22;65904;52.278;20.972;2023-08-21T00:06:49;24.30;99.90
76967;DHT22;65904;52.278;20.972;2023-08-21T00:09:35;24.30;99.90
76967;DHT22;65904;52.278;20.972;2023-08-21T00:12:21;24.20;99.90
76967;DHT22;65904;52.278;20.972;2023-08-21T00:15:08;24.20;99.90
76967;DHT22;65904;52.278;20.972;2023-08-21T00:17:56;24.20;99.90
76967;DHT22;65904;52.278;20.972;2023-08-21T00:20:41;24.20;99.90
76967;DHT22;65904;52.278;20.972;2023-08-21T00:23:27;24.20;99.90
76967;DHT22;65904;52.278;20.972;2023-08-21T00:26:13;24.20;99.90
76967;DHT22;65904;52.278;20.972;2023-08-21T00:28:59;24.20;99.90
76967;DHT22;65904;52.278;20.972;2023-08-21T00:31:45;24.20;99.90
76967;DHT22;65904;52.278;20.972;2023-08-21T00:34:32;24.20;99.90
76967;DHT22;65904;52.278;20.972;2023-08-21T00:37:18;24.20;99.90
76967;DHT22;65904;52.278;20.972;2023-08-21T00:40:05;24.20;99.90
76967;DHT22;65904;52.278;20.972;2023-08-21T00:42:51;24.10;99.90
76967;DHT22;65904;52.278;20.972;2023-08-21T00:45:39;24.10;99.90
76967;DHT22;65904;52.278;20.972;2023-08-21T00:48:27;24.00;99.90
76967;DHT22;65904;52.278;20.972;2023-08-21T00:51:14;24.00;99.90
76967;DHT22;65904;52.278;20.972;2023-08-21T00:54:01;24.00;99.90
76967;DHT22;65904;52.278;20.972;2023-08-21T00:56:48;24.00;99.90
76967;DHT22;65904;52.278;20.972;2023-08-21T00:59:36;23.90;99.90
76967;DHT22;65904;52.278;20.972;2023-08-21T01:02:22;23.90;99.90
76967;DHT22;65904;52.278;20.972;2023-08-21T01:05:08;23.90;99.90
76967;DHT22;65904;52.278;20.972;2023-08-21T01:07:59;23.90;99.90
76967;DHT22;65904;52.278;20.972;2023-08-21T01:10:49;23.80;99.90
76967;DHT22;65904;52.278;20.972;2023-08-21T01:13:40;23.80;99.90
76967;DHT22;65904;52.278;20.972;2023-08-21T01:16:47;23.70;99.90
76967;DHT22;65904;52.278;20.972;2023-08-21T01:19:35;23.70;99.90
76967;DHT22;65904;52.278;20.972;2023-08-21T01:22:25;23.70;99.90
76967;DHT22;65904;52.278;20.972;2023-08-21T01:25:12;23.70;99.90
76967;DHT22;65904;52.278;20.972;2023-08-21T01:28:00;23.60;99.90
76967;DHT22;65904;52.278;20.972;2023-08-21T01:30:47;23.50;99.90
76967;DHT22;65904;52.278;20.972;2023-08-21T01:33:35;23.50;99.90
76967;DHT22;65904;52.278;20.972;2023-08-21T01:36:23;23.50;99.90
76967;DHT22;65904;52.278;20.972;2023-08-21T01:39:09;23.50;99.90
76967;DHT22;65904;52.278;20.972;2023-08-21T01:41:58;23.50;99.90
76967;DHT22;65904;52.278;20.972;2023-08-21T01:44:44;23.40;99.90
76967;DHT22;65904;52.278;20.972;2023-08-21T01:47:30;23.40;99.90
76967;DHT22;65904;52.278;20.972;2023-08-21T01:50:16;23.40;99.90
76967;DHT22;65904;52.278;20.972;2023-08-21T01:53:02;23.30;99.90
76967;DHT22;65904;52.278;20.972;2023-08-21T01:55:48;23.30;99.90
76967;DHT22;65904;52.278;20.972;2023-08-21T01:58:36;23.20;99.90
76967;DHT22;65904;52.278;20.972;2023-08-21T02:01:21;23.20;99.90
76967;DHT22;65904;52.278;20.972;2023-08-21T02:04:07;23.20;99.90
76967;DHT22;65904;52.278;20.972;2023-08-21T02:06:53;23.20;99.90
76967;DHT22;65904;52.278;20.972;2023-08-21T02:09:41;23.20;99.90
76967;DHT22;65904;52.278;20.972;2023-08-21T02:12:28;23.20;99.90
76967;DHT22;65904;52.278;20.972;2023-08-21T02:15:16;23.20;99.90
76967;DHT22;65904;52.278;20.972;2023-08-21T02:18:02;23.20;99.90
76967;DHT22;65904;52.278;20.972;2023-08-21T02:20:48;23.10;99.90
76967;DHT22;65904;52.278;20.972;2023-08-21T02:23:34;23.00;99.90
76967;DHT22;65904;52.278;20.972;2023-08-21T02:26:20;23.10;99.90
76967;DHT22;65904;52.278;20.972;2023-08-21T02:29:06;22.90;99.90
76967;DHT22;65904;52.278;20.972;2023-08-21T02:31:54;23.00;99.90
76967;DHT22;65904;52.278;20.972;2023-08-21T02:34:41;22.90;99.90
76967;DHT22;65904;52.278;20.972;2023-08-21T02:37:27;22.90;99.90
76967;DHT22;65904;52.278;20.972;2023-08-21T02:40:13;22.90;99.90
76967;DHT22;65904;52.278;20.972;2023-08-21T02:42:59;22.90;99.90
76967;DHT22;65904;52.278;20.972;2023-08-21T02:45:45;22.80;99.90
76967;DHT22;65904;52.278;20.972;2023-08-21T02:48:35;22.80;99.90
76967;DHT22;65904;52.278;20.972;2023-08-21T02:51:20;22.80;99.90
76967;DHT22;65904;52.278;20.972;2023-08-21T02:54:08;22.80;99.90
76967;DHT22;65904;52.278;20.972;2023-08-21T02:56:54;22.70;99.90
76967;DHT22;65904;52.278;20.972;2023-08-21T02:59:41;22.70;99.90
76967;DHT22;65904;52.278;20.972;2023-08-21T03:02:27;22.70;99.90
76967;DHT22;65904;52.278;20.972;2023-08-21T03:05:14;22.70;99.90
76967;DHT22;65904;52.278;20.972;2023-08-21T03:08:00;22.60;99.90
76967;DHT22;65904;52.278;20.972;2023-08-21T03:10:47;22.50;99.90
76967;DHT22;65904;52.278;20.972;2023-08-21T03:13:33;22.60;99.90
76967;DHT22;65904;52.278;20.972;2023-08-21T03:16:20;22.60;99.90
76967;DHT22;65904;52.278;20.972;2023-08-21T03:19:06;22.50;99.90
76967;DHT22;65904;52.278;20.972;2023-08-21T03:21:54;22.50;99.90
76967;DHT22;65904;52.278;20.972;2023-08-21T03:24:40;22.50;99.90
76967;DHT22;65904;52.278;20.972;2023-08-21T03:27:26;22.50;99.90
76967;DHT22;65904;52.278;20.972;2023-08-21T03:30:12;22.50;99.90
76967;DHT22;65904;52.278;20.972;2023-08-21T03:32:59;22.50;99.90
76967;DHT22;65904;52.278;20.972;2023-08-21T03:35:45;22.50;99.90
76967;DHT22;65904;52.278;20.972;2023-08-21T03:38:33;22.40;99.90
76967;DHT22;65904;52.278;20.972;2023-08-21T03:41:19;22.40;99.90
76967;DHT22;65904;52.278;20.972;2023-08-21T03:44:06;22.40;99.90
76967;DHT22;65904;52.278;20.972;2023-08-21T03:46:52;22.30;99.90
76967;DHT22;65904;52.278;20.972;2023-08-21T03:49:38;22.30;99.90
76967;DHT22;65904;52.278;20.972;2023-08-21T03:52:23;22.30;99.90
76967;DHT22;65904;52.278;20.972;2023-08-21T03:55:11;22.20;99.90
76967;DHT22;65904;52.278;20.972;2023-08-21T03:57:57;22.10;99.90
76967;DHT22;65904;52.278;20.972;2023-08-21T04:00:43;22.00;99.90
76967;DHT22;65904;52.278;20.972;2023-08-21T04:03:29;22.10;99.90
76967;DHT22;65904;52.278;20.972;2023-08-21T04:06:15;22.00;99.90
76967;DHT22;65904;52.278;20.972;2023-08-21T04:09:01;22.00;99.90
76967;DHT22;65904;52.278;20.972;2023-08-21T04:11:52;21.90;99.90
76967;DHT22;65904;52.278;20.972;2023-08-21T04:14:38;22.00;99.90
76967;DHT22;65904;52.278;20.972;2023-08-21T04:17:24;22.10;99.90
76967;DHT22;65904;52.278;20.972;2023-08-21T04:20:11;22.20;99.90
76967;DHT22;65904;52.278;20.972;2023-08-21T04:22:57;22.40;99.90
76967;DHT22;65904;52.278;20.972;2023-08-21T04:25:43;22.30;99.90
76967;DHT22;65904;52.278;20.972;2023-08-21T04:28:31;22.40;99.90
76967;DHT22;65904;52.278;20.972;2023-08-21T04:31:19;22.40;99.90
76967;DHT22;65904;52.278;20.972;2023-08-21T04:34:07;22.40;99.90
76967;DHT22;65904;52.278;20.972;2023-08-21T04:36:53;22.40;99.90
76967;DHT22;65904;52.278;20.972;2023-08-21T04:39:39;22.40;99.90
76967;DHT22;65904;52.278;20.972;2023-08-21T04:42:25;22.40;99.90
76967;DHT22;65904;52.278;20.972;2023-08-21T04:45:13;22.50;99.90
76967;DHT22;65904;52.278;20.972;2023-08-21T04:47:59;22.60;99.90
76967;DHT22;65904;52.278;20.972;2023-08-21T04:50:45;22.70;99.90
76967;DHT22;65904;52.278;20.972;2023-08-21T04:53:32;22.70;99.90
76967;DHT22;65904;52.278;20.972;2023-08-21T04:56:18;22.70;99.90
76967;DHT22;65904;52.278;20.972;2023-08-21T04:59:04;22.90;99.90
76967;DHT22;65904;52.278;20.972;2023-08-21T05:01:52;23.00;99.90
76967;DHT22;65904;52.278;20.972;2023-08-21T05:04:38;22.90;99.90
76967;DHT22;65904;52.278;20.972;2023-08-21T05:07:24;22.90;99.90
76967;DHT22;65904;52.278;20.972;2023-08-21T05:10:11;22.80;99.90
76967;DHT22;65904;52.278;20.972;2023-08-21T05:12:59;22.90;99.90
76967;DHT22;65904;52.278;20.972;2023-08-21T05:15:45;22.90;99.90
76967;DHT22;65904;52.278;20.972;2023-08-21T05:18:37;22.90;99.90
76967;DHT22;65904;52.278;20.972;2023-08-21T05:21:23;23.00;99.90
76967;DHT22;65904;52.278;20.972;2023-08-21T05:24:10;23.00;99.90
76967;DHT22;65904;52.278;20.972;2023-08-21T05:27:01;23.00;99.90
76967;DHT22;65904;52.278;20.972;2023-08-21T05:29:47;22.90;99.90
76967;DHT22;65904;52.278;20.972;2023-08-21T05:32:34;22.90;99.90
76967;DHT22;65904;52.278;20.972;2023-08-21T05:35:21;23.00;99.90
76967;DHT22;65904;52.278;20.972;2023-08-21T05:38:07;23.00;99.90
76967;DHT22;65904;52.278;20.972;2023-08-21T05:40:54;23.10;99.90
76967;DHT22;65904;52.278;20.972;2023-08-21T05:43:40;23.10;99.90
76967;DHT22;65904;52.278;20.972;2023-08-21T05:46:29;23.20;99.90
76967;DHT22;65904;52.278;20.972;2023-08-21T05:49:14;23.20;99.90
76967;DHT22;65904;52.278;20.972;2023-08-21T05:52:03;23.30;99.90
76967;DHT22;65904;52.278;20.972;2023-08-21T05:54:49;23.30;99.90
76967;DHT22;65904;52.278;20.972;2023-08-21T05:57:35;23.20;99.90
76967;DHT22;65904;52.278;20.972;2023-08-21T06:00:22;23.20;99.90
76967;DHT22;65904;52.278;20.972;2023-08-21T06:03:09;23.30;99.90
76967;DHT22;65904;52.278;20.972;2023-08-21T06:06:13;23.30;99.90
76967;DHT22;65904;52.278;20.972;2023-08-21T06:09:01;23.30;99.90
76967;DHT22;65904;52.278;20.972;2023-08-21T06:11:48;23.40;99.90
76967;DHT22;65904;52.278;20.972;2023-08-21T06:14:33;23.50;99.90
76967;DHT22;65904;52.278;20.972;2023-08-21T06:17:21;23.60;99.90
76967;DHT22;65904;52.278;20.972;2023-08-21T06:20:08;23.70;99.90
76967;DHT22;65904;52.278;20.972;2023-08-21T06:22:54;23.70;99.90
76967;DHT22;65904;52.278;20.972;2023-08-21T06:25:41;23.70;99.90
76967;DHT22;65904;52.278;20.972;2023-08-21T06:28:29;23.70;99.90
76967;DHT22;65904;52.278;20.972;2023-08-21T06:31:15;23.70;99.90
76967;DHT22;65904;52.278;20.972;2023-08-21T06:34:01;23.80;99.90
76967;DHT22;65904;52.278;20.972;2023-08-21T06:36:47;23.80;99.90
76967;DHT22;65904;52.278;20.972;2023-08-21T06:39:33;23.90;99.90
76967;DHT22;65904;52.278;20.972;2023-08-21T06:42:21;24.00;99.90
76967;DHT22;65904;52.278;20.972;2023-08-21T06:45:09;24.00;99.90
76967;DHT22;65904;52.278;20.972;2023-08-21T06:47:55;24.20;99.90
76967;DHT22;65904;52.278;20.972;2023-08-21T06:50:41;24.30;99.90
76967;DHT22;65904;52.278;20.972;2023-08-21T06:53:27;24.40;99.90
76967;DHT22;65904;52.278;20.972;2023-08-21T06:56:12;24.50;99.90
76967;DHT22;65904;52.278;20.972;2023-08-21T06:59:00;24.60;99.90
76967;DHT22;65904;52.278;20.972;2023-08-21T07:01:47;24.80;99.90
76967;DHT22;65904;52.278;20.972;2023-08-21T07:04:33;24.80;99.90
76967;DHT22;65904;52.278;20.972;2023-08-21T07:07:19;24.70;99.90
76967;DHT22;65904;52.278;20.972;2023-08-21T07:10:05;24.60;99.90
76967;DHT22;65904;52.278;20.972;2023-08-21T07:12:52;24.70;99.90
76967;DHT22;65904;52.278;20.972;2023-08-21T07:15:40;24.70;99.90
76967;DHT22;65904;52.278;20.972;2023-08-21T07:18:26;24.70;99.90
76967;DHT22;65904;52.278;20.972;2023-08-21T07:21:12;24.70;99.90
76967;DHT22;65904;52.278;20.972;2023-08-21T07:23:58;24.60;99.90
76967;DHT22;65904;52.278;20.972;2023-08-21T07:26:44;24.50;99.90
76967;DHT22;65904;52.278;20.972;2023-08-21T07:29:30;24.60;99.90
76967;DHT22;65904;52.278;20.972;2023-08-21T07:32:17;24.50;99.90
76967;DHT22;65904;52.278;20.972;2023-08-21T07:35:03;24.30;99.90
76967;DHT22;65904;52.278;20.972;2023-08-21T07:37:49;24.00;99.90
76967;DHT22;65904;52.278;20.972;2023-08-21T07:40:35;23.90;99.90
76967;DHT22;65904;52.278;20.972;2023-08-21T07:43:21;23.80;99.90
76967;DHT22;65904;52.278;20.972;2023-08-21T07:46:08;23.80;99.90
76967;DHT22;65904;52.278;20.972;2023-08-21T07:48:59;23.60;99.90
76967;DHT22;65904;52.278;20.972;2023-08-21T07:51:44;23.60;99.90
76967;DHT22;65904;52.278;20.972;2023-08-21T07:54:30;23.70;99.90
76967;DHT22;65904;52.278;20.972;2023-08-21T07:57:17;23.70;99.90
76967;DHT22;65904;52.278;20.972;2023-08-21T08:00:04;23.80;99.90
76967;DHT22;65904;52.278;20.972;2023-08-21T08:02:57;23.90;99.90
76967;DHT22;65904;52.278;20.972;2023-08-21T08:05:45;24.20;99.90
76967;DHT22;65904;52.278;20.972;2023-08-21T08:08:31;24.30;99.90
76967;DHT22;65904;52.278;20.972;2023-08-21T08:11:17;24.30;99.90
76967;DHT22;65904;52.278;20.972;2023-08-21T08:14:03;24.50;99.90
76967;DHT22;65904;52.278;20.972;2023-08-21T08:16:49;24.70;99.90
76967;DHT22;65904;52.278;20.972;2023-08-21T08:19:35;24.90;99.90
76967;DHT22;65904;52.278;20.972;2023-08-21T08:22:23;25.00;99.90
76967;DHT22;65904;52.278;20.972;2023-08-21T08:25:09;25.10;99.90
76967;DHT22;65904;52.278;20.972;2023-08-21T08:27:56;25.30;99.90
76967;DHT22;65904;52.278;20.972;2023-08-21T08:30:41;25.30;99.90
76967;DHT22;65904;52.278;20.972;2023-08-21T08:33:27;25.40;99.90
76967;DHT22;65904;52.278;20.972;2023-08-21T08:36:13;25.50;99.90
76967;DHT22;65904;52.278;20.972;2023-08-21T08:39:01;25.50;99.90
76967;DHT22;65904;52.278;20.972;2023-08-21T08:41:48;25.70;99.90
76967;DHT22;65904;52.278;20.972;2023-08-21T08:44:36;25.80;99.90
76967;DHT22;65904;52.278;20.972;2023-08-21T08:47:22;25.90;99.90
76967;DHT22;65904;52.278;20.972;2023-08-21T08:50:09;26.00;99.90
76967;DHT22;65904;52.278;20.972;2023-08-21T08:52:55;26.20;99.90
76967;DHT22;65904;52.278;20.972;2023-08-21T08:55:44;26.90;99.90
76967;DHT22;65904;52.278;20.972;2023-08-21T08:58:29;27.80;99.90
76967;DHT22;65904;52.278;20.972;2023-08-21T09:01:16;29.00;99.90
76967;DHT22;65904;52.278;20.972;2023-08-21T09:04:02;30.00;99.90
76967;DHT22;65904;52.278;20.972;2023-08-21T09:06:48;30.70;99.90
76967;DHT22;65904;52.278;20.972;2023-08-21T09:09:38;31.40;99.90
76967;DHT22;65904;52.278;20.972;2023-08-21T09:12:25;32.10;99.90
76967;DHT22;65904;52.278;20.972;2023-08-21T09:15:11;32.60;99.90
76967;DHT22;65904;52.278;20.972;2023-08-21T09:17:57;33.30;99.90
76967;DHT22;65904;52.278;20.972;2023-08-21T09:20:43;33.50;99.90
76967;DHT22;65904;52.278;20.972;2023-08-21T09:23:29;34.60;99.90
76967;DHT22;65904;52.278;20.972;2023-08-21T09:26:18;35.20;98.20
76967;DHT22;65904;52.278;20.972;2023-08-21T09:29:06;35.30;97.00
76967;DHT22;65904;52.278;20.972;2023-08-21T09:31:55;35.30;94.60
76967;DHT22;65904;52.278;20.972;2023-08-21T09:34:42;35.50;93.80
76967;DHT22;65904;52.278;20.972;2023-08-21T09:37:28;36.30;92.20
76967;DHT22;65904;52.278;20.972;2023-08-21T09:40:15;35.70;89.00
76967;DHT22;65904;52.278;20.972;2023-08-21T09:43:01;35.80;82.20
76967;DHT22;65904;52.278;20.972;2023-08-21T09:45:51;35.40;82.80
76967;DHT22;65904;52.278;20.972;2023-08-21T09:48:39;35.40;84.20
76967;DHT22;65904;52.278;20.972;2023-08-21T09:51:25;35.20;80.10
76967;DHT22;65904;52.278;20.972;2023-08-21T09:54:11;34.20;79.10
76967;DHT22;65904;52.278;20.972;2023-08-21T09:57:00;34.20;81.40
76967;DHT22;65904;52.278;20.972;2023-08-21T09:59:46;34.20;82.40
76967;DHT22;65904;52.278;20.972;2023-08-21T10:02:34;33.60;85.60
76967;DHT22;65904;52.278;20.972;2023-08-21T10:05:20;34.20;85.80
76967;DHT22;65904;52.278;20.972;2023-08-21T10:08:07;34.40;82.60
76967;DHT22;65904;52.278;20.972;2023-08-21T10:10:53;34.00;83.90
76967;DHT22;65904;52.278;20.972;2023-08-21T10:13:39;34.20;77.80
76967;DHT22;65904;52.278;20.972;2023-08-21T10:16:26;33.90;78.90
76967;DHT22;65904;52.278;20.972;2023-08-21T10:19:15;34.30;79.20
76967;DHT22;65904;52.278;20.972;2023-08-21T10:22:02;34.00;73.50
76967;DHT22;65904;52.278;20.972;2023-08-21T10:24:48;35.10;72.40
76967;DHT22;65904;52.278;20.972;2023-08-21T10:27:34;34.60;74.20
76967;DHT22;65904;52.278;20.972;2023-08-21T10:30:21;35.30;70.90
76967;DHT22;65904;52.278;20.972;2023-08-21T10:33:07;35.70;68.90
76967;DHT22;65904;52.278;20.972;2023-08-21T10:35:54;36.30;67.80
76967;DHT22;65904;52.278;20.972;2023-08-21T10:41:52;36.00;67.00
76967;DHT22;65904;52.278;20.972;2023-08-21T10:44:48;35.80;68.20
76967;DHT22;65904;52.278;20.972;2023-08-21T10:47:36;36.30;67.50
76967;DHT22;65904;52.278;20.972;2023-08-21T10:50:22;36.40;66.90
76967;DHT22;65904;52.278;20.972;2023-08-21T10:53:09;36.20;64.80
76967;DHT22;65904;52.278;20.972;2023-08-21T10:55:55;36.30;62.80
76967;DHT22;65904;52.278;20.972;2023-08-21T10:58:42;36.90;59.20
76967;DHT22;65904;52.278;20.972;2023-08-21T11:01:41;36.70;58.70
76967;DHT22;65904;52.278;20.972;2023-08-21T11:04:27;36.80;57.50
76967;DHT22;65904;52.278;20.972;2023-08-21T11:07:13;36.60;58.00
76967;DHT22;65904;52.278;20.972;2023-08-21T11:10:01;37.90;54.70
76967;DHT22;65904;52.278;20.972;2023-08-21T11:12:48;38.20;54.20
76967;DHT22;65904;52.278;20.972;2023-08-21T11:15:35;38.10;53.60
76967;DHT22;65904;52.278;20.972;2023-08-21T11:18:21;37.80;53.20
76967;DHT22;65904;52.278;20.972;2023-08-21T11:21:11;37.30;53.70
76967;DHT22;65904;52.278;20.972;2023-08-21T11:23:57;38.00;51.40
76967;DHT22;65904;52.278;20.972;2023-08-21T11:26:45;37.90;51.20
76967;DHT22;65904;52.278;20.972;2023-08-21T11:29:31;37.60;50.10
76967;DHT22;65904;52.278;20.972;2023-08-21T11:32:19;37.40;51.50
76967;DHT22;65904;52.278;20.972;2023-08-21T11:35:06;37.60;51.20
76967;DHT22;65904;52.278;20.972;2023-08-21T11:37:53;37.10;49.50
76967;DHT22;65904;52.278;20.972;2023-08-21T11:40:38;36.90;48.00
76967;DHT22;65904;52.278;20.972;2023-08-21T11:43:35;36.30;49.10
76967;DHT22;65904;52.278;20.972;2023-08-21T11:46:22;36.30;48.60
76967;DHT22;65904;52.278;20.972;2023-08-21T11:49:08;36.60;48.40
76967;DHT22;65904;52.278;20.972;2023-08-21T11:51:54;36.30;49.00
76967;DHT22;65904;52.278;20.972;2023-08-21T11:54:40;36.30;49.60
76967;DHT22;65904;52.278;20.972;2023-08-21T11:57:26;36.80;49.40
76967;DHT22;65904;52.278;20.972;2023-08-21T12:00:16;37.40;48.30
76967;DHT22;65904;52.278;20.972;2023-08-21T12:03:03;38.20;47.70
76967;DHT22;65904;52.278;20.972;2023-08-21T12:05:51;38.00;47.20
76967;DHT22;65904;52.278;20.972;2023-08-21T12:08:36;37.90;47.80
76967;DHT22;65904;52.278;20.972;2023-08-21T12:11:23;37.80;48.90
76967;DHT22;65904;52.278;20.972;2023-08-21T12:14:09;38.00;47.90
76967;DHT22;65904;52.278;20.972;2023-08-21T12:16:56;38.50;47.80
76967;DHT22;65904;52.278;20.972;2023-08-21T12:19:42;38.00;48.80
76967;DHT22;65904;52.278;20.972;2023-08-21T12:22:28;37.60;48.70
76967;DHT22;65904;52.278;20.972;2023-08-21T12:25:14;37.30;49.50
76967;DHT22;65904;52.278;20.972;2023-08-21T12:28:01;37.20;49.50
76967;DHT22;65904;52.278;20.972;2023-08-21T12:30:46;38.00;49.20
76967;DHT22;65904;52.278;20.972;2023-08-21T12:33:34;38.80;46.30
76967;DHT22;65904;52.278;20.972;2023-08-21T12:36:20;39.60;45.50
76967;DHT22;65904;52.278;20.972;2023-08-21T12:39:06;39.10;46.50
76967;DHT22;65904;52.278;20.972;2023-08-21T12:41:53;38.60;46.80
76967;DHT22;65904;52.278;20.972;2023-08-21T12:44:39;38.70;46.80
76967;DHT22;65904;52.278;20.972;2023-08-21T12:47:25;37.90;47.20
76967;DHT22;65904;52.278;20.972;2023-08-21T12:50:12;38.30;47.60
76967;DHT22;65904;52.278;20.972;2023-08-21T12:52:58;38.40;45.50
76967;DHT22;65904;52.278;20.972;2023-08-21T12:55:44;38.60;45.30
76967;DHT22;65904;52.278;20.972;2023-08-21T12:58:30;38.70;45.20
76967;DHT22;65904;52.278;20.972;2023-08-21T13:01:17;38.80;45.80
76967;DHT22;65904;52.278;20.972;2023-08-21T13:04:04;39.00;44.80
76967;DHT22;65904;52.278;20.972;2023-08-21T13:06:51;38.60;44.60
76967;DHT22;65904;52.278;20.972;2023-08-21T13:09:37;38.90;44.30
76967;DHT22;65904;52.278;20.972;2023-08-21T13:12:23;39.30;44.50
76967;DHT22;65904;52.278;20.972;2023-08-21T13:15:09;39.10;44.10
76967;DHT22;65904;52.278;20.972;2023-08-21T13:17:56;39.40;43.70
76967;DHT22;65904;52.278;20.972;2023-08-21T13:20:42;39.60;43.70
76967;DHT22;65904;52.278;20.972;2023-08-21T13:23:30;39.40;43.10
76967;DHT22;65904;52.278;20.972;2023-08-21T13:26:18;39.00;43.70
76967;DHT22;65904;52.278;20.972;2023-08-21T13:29:04;39.50;43.30
76967;DHT22;65904;52.278;20.972;2023-08-21T13:31:52;39.50;43.70
76967;DHT22;65904;52.278;20.972;2023-08-21T13:34:38;39.40;44.10
76967;DHT22;65904;52.278;20.972;2023-08-21T13:37:24;39.50;44.30
76967;DHT22;65904;52.278;20.972;2023-08-21T13:40:12;39.90;43.50
76967;DHT22;65904;52.278;20.972;2023-08-21T13:43:01;39.50;44.20
76967;DHT22;65904;52.278;20.972;2023-08-21T13:45:48;39.50;44.20
76967;DHT22;65904;52.278;20.972;2023-08-21T13:48:33;39.90;43.30
76967;DHT22;65904;52.278;20.972;2023-08-21T13:51:19;40.50;42.70
76967;DHT22;65904;52.278;20.972;2023-08-21T13:54:05;41.00;42.00
76967;DHT22;65904;52.278;20.972;2023-08-21T13:56:53;41.00;42.00
76967;DHT22;65904;52.278;20.972;2023-08-21T13:59:38;40.70;42.00
76967;DHT22;65904;52.278;20.972;2023-08-21T14:02:25;41.40;41.50
76967;DHT22;65904;52.278;20.972;2023-08-21T14:05:11;41.10;41.40
76967;DHT22;65904;52.278;20.972;2023-08-21T14:07:57;40.70;42.20
76967;DHT22;65904;52.278;20.972;2023-08-21T14:10:43;41.00;41.10
76967;DHT22;65904;52.278;20.972;2023-08-21T14:13:31;41.40;40.80
76967;DHT22;65904;52.278;20.972;2023-08-21T14:16:17;41.10;41.40
76967;DHT22;65904;52.278;20.972;2023-08-21T14:19:03;41.00;41.50
76967;DHT22;65904;52.278;20.972;2023-08-21T14:21:49;40.50;41.80
76967;DHT22;65904;52.278;20.972;2023-08-21T14:24:35;40.70;41.60
76967;DHT22;65904;52.278;20.972;2023-08-21T14:27:21;41.90;40.80
76967;DHT22;65904;52.278;20.972;2023-08-21T14:30:08;41.70;41.50
76967;DHT22;65904;52.278;20.972;2023-08-21T14:32:55;41.10;41.30
76967;DHT22;65904;52.278;20.972;2023-08-21T14:35:41;41.30;40.90
76967;DHT22;65904;52.278;20.972;2023-08-21T14:38:27;40.80;41.50
76967;DHT22;65904;52.278;20.972;2023-08-21T14:41:14;40.30;42.50
76967;DHT22;65904;52.278;20.972;2023-08-21T14:43:59;40.10;42.40
76967;DHT22;65904;52.278;20.972;2023-08-21T14:46:47;40.20;42.60
76967;DHT22;65904;52.278;20.972;2023-08-21T14:49:33;39.60;43.20
76967;DHT22;65904;52.278;20.972;2023-08-21T14:52:19;39.80;43.50
76967;DHT22;65904;52.278;20.972;2023-08-21T14:55:05;39.20;43.80
76967;DHT22;65904;52.278;20.972;2023-08-21T14:57:51;39.20;43.70
76967;DHT22;65904;52.278;20.972;2023-08-21T15:00:37;38.50;44.20
76967;DHT22;65904;52.278;20.972;2023-08-21T15:03:24;38.70;44.80
76967;DHT22;65904;52.278;20.972;2023-08-21T15:06:11;38.20;44.80
76967;DHT22;65904;52.278;20.972;2023-08-21T15:08:58;37.60;45.80
76967;DHT22;65904;52.278;20.972;2023-08-21T15:11:44;37.30;45.90
76967;DHT22;65904;52.278;20.972;2023-08-21T15:14:30;36.90;46.90
76967;DHT22;65904;52.278;20.972;2023-08-21T15:17:17;35.70;48.40
76967;DHT22;65904;52.278;20.972;2023-08-21T15:20:05;35.60;48.70
76967;DHT22;65904;52.278;20.972;2023-08-21T15:22:52;36.20;47.90
76967;DHT22;65904;52.278;20.972;2023-08-21T15:25:38;36.30;48.10
76967;DHT22;65904;52.278;20.972;2023-08-21T15:28:24;35.70;48.50
76967;DHT22;65904;52.278;20.972;2023-08-21T15:31:10;35.00;49.50
76967;DHT22;65904;52.278;20.972;2023-08-21T15:33:56;34.20;51.10
76967;DHT22;65904;52.278;20.972;2023-08-21T15:36:43;33.90;51.50
76967;DHT22;65904;52.278;20.972;2023-08-21T15:39:29;33.70;51.50
76967;DHT22;65904;52.278;20.972;2023-08-21T15:42:15;33.60;51.80
76967;DHT22;65904;52.278;20.972;2023-08-21T15:45:01;33.50;51.60
76967;DHT22;65904;52.278;20.972;2023-08-21T15:47:48;33.10;52.50
76967;DHT22;65904;52.278;20.972;2023-08-21T15:50:33;32.80;52.90
76967;DHT22;65904;52.278;20.972;2023-08-21T15:53:21;32.80;52.90
76967;DHT22;65904;52.278;20.972;2023-08-21T15:56:07;33.10;52.60
76967;DHT22;65904;52.278;20.972;2023-08-21T15:58:53;33.20;53.20
76967;DHT22;65904;52.278;20.972;2023-08-21T16:01:39;33.40;52.70
76967;DHT22;65904;52.278;20.972;2023-08-21T16:04:25;33.70;52.60
76967;DHT22;65904;52.278;20.972;2023-08-21T16:07:11;34.00;51.70
76967;DHT22;65904;52.278;20.972;2023-08-21T16:09:58;34.40;51.20
76967;DHT22;65904;52.278;20.972;2023-08-21T16:12:44;34.60;51.20
76967;DHT22;65904;52.278;20.972;2023-08-21T16:15:30;34.90;51.10
76967;DHT22;65904;52.278;20.972;2023-08-21T16:18:17;34.60;50.70
76967;DHT22;65904;52.278;20.972;2023-08-21T16:21:03;34.00;51.70
76967;DHT22;65904;52.278;20.972;2023-08-21T16:23:48;33.90;52.30
76967;DHT22;65904;52.278;20.972;2023-08-21T16:26:36;33.70;52.70
76967;DHT22;65904;52.278;20.972;2023-08-21T16:29:22;33.30;53.20
76967;DHT22;65904;52.278;20.972;2023-08-21T16:32:08;33.60;53.10
76967;DHT22;65904;52.278;20.972;2023-08-21T16:34:54;33.00;53.20
76967;DHT22;65904;52.278;20.972;2023-08-21T16:37:41;32.60;54.60
76967;DHT22;65904;52.278;20.972;2023-08-21T16:40:27;32.20;54.80
76967;DHT22;65904;52.278;20.972;2023-08-21T16:43:16;31.70;55.70
76967;DHT22;65904;52.278;20.972;2023-08-21T16:46:02;31.90;56.20
76967;DHT22;65904;52.278;20.972;2023-08-21T16:48:48;32.00;55.90
76967;DHT22;65904;52.278;20.972;2023-08-21T16:51:34;31.70;56.60
76967;DHT22;65904;52.278;20.972;2023-08-21T16:54:20;31.40;57.00
76967;DHT22;65904;52.278;20.972;2023-08-21T16:57:06;31.00;57.30
76967;DHT22;65904;52.278;20.972;2023-08-21T16:59:54;31.00;57.60
76967;DHT22;65904;52.278;20.972;2023-08-21T17:02:39;30.70;58.50
76967;DHT22;65904;52.278;20.972;2023-08-21T17:05:26;30.20;59.40
76967;DHT22;65904;52.278;20.972;2023-08-21T17:08:12;30.00;60.30
76967;DHT22;65904;52.278;20.972;2023-08-21T17:10:58;29.80;60.90
76967;DHT22;65904;52.278;20.972;2023-08-21T17:13:44;29.80;60.80
76967;DHT22;65904;52.278;20.972;2023-08-21T17:16:35;29.60;60.90
76967;DHT22;65904;52.278;20.972;2023-08-21T17:19:21;29.50;61.30